Time;durP1;ratioP1;P1;durP2;ratioP2;P2;SDS_P1;SDS_P2;PMS_P1;PMS_P2;Temp;Humidity;BMP_temperature;BMP_pressure;BME280_temperature;BME280_humidity;BME280_pressure;Samples;Min_cycle;Max_cycle;Signal;HPM_P1;HPM_P2
2021/08/05 00:02:24;;;;;;;11.98;8.63;;;;;;;21.54;52.42;101078.75;5008903;28;123916;-70
2021/08/05 00:04:51;;;;;;;11.05;9.02;;;;;;;21.55;52.37;101075.06;5006461;28;123431;-70
2021/08/05 00:07:18;;;;;;;13.63;9.52;;;;;;;21.54;52.44;101078.75;4980937;28;114138;-70
2021/08/05 00:09:45;;;;;;;11.27;8.68;;;;;;;21.54;52.41;101067.97;5008087;28;114050;-70
2021/08/05 00:12:13;;;;;;;10.18;9.02;;;;;;;21.54;52.64;101073.34;5008422;28;123916;-70
2021/08/05 00:14:42;;;;;;;11.68;8.80;;;;;;;21.54;52.79;101072.50;5009695;28;124217;-70
2021/08/05 00:17:10;;;;;;;10.20;8.65;;;;;;;21.52;52.97;101075.34;5001781;28;115414;-70
2021/08/05 00:19:38;;;;;;;14.25;9.95;;;;;;;21.50;52.96;101061.16;4967411;28;113854;-70
2021/08/05 00:22:06;;;;;;;12.73;10.35;;;;;;;21.47;52.96;101061.41;5003539;28;124158;-70
2021/08/05 00:24:33;;;;;;;12.48;10.23;;;;;;;21.44;52.99;101055.41;4996020;28;123853;-70
2021/08/05 00:27:00;;;;;;;13.88;10.27;;;;;;;21.38;53.00;101052.28;5006765;28;114660;-70
2021/08/05 00:29:28;;;;;;;13.25;10.20;;;;;;;21.32;53.40;101054.63;5008046;28;113809;-71
2021/08/05 00:31:55;;;;;;;11.90;9.85;;;;;;;21.24;53.67;101062.53;4989676;28;123409;-71
2021/08/05 00:34:22;;;;;;;10.77;9.00;;;;;;;21.17;53.49;101049.59;4993822;28;122890;-70
2021/08/05 00:36:50;;;;;;;11.88;9.95;;;;;;;21.13;53.79;101053.53;4989925;28;113308;-70
2021/08/05 00:39:17;;;;;;;11.10;9.38;;;;;;;21.14;53.89;101055.25;5008939;28;114713;-71
2021/08/05 00:41:44;;;;;;;12.13;9.75;;;;;;;21.14;54.22;101049.88;4984662;28;123147;-71
2021/08/05 00:44:11;;;;;;;12.15;9.32;;;;;;;21.14;53.99;101049.88;4998043;28;124650;-71
2021/08/05 00:46:39;;;;;;;10.32;9.18;;;;;;;21.15;54.09;101056.09;4988342;28;113133;-70
2021/08/05 00:49:07;;;;;;;11.80;9.90;;;;;;;21.16;54.05;101055.13;4997459;28;113588;-71
2021/08/05 00:51:34;;;;;;;11.63;9.82;;;;;;;21.14;53.99;101055.25;4998524;28;124342;-71
2021/08/05 00:54:02;;;;;;;11.05;9.27;;;;;;;21.15;54.05;101046.19;5008838;28;123972;-70
2021/08/05 00:56:29;;;;;;;11.43;9.60;;;;;;;21.18;53.71;101047.75;4983387;28;113159;-70
2021/08/05 00:58:56;;;;;;;11.90;9.95;;;;;;;21.18;53.93;101040.53;4997163;28;114071;-71
2021/08/05 01:01:29;;;;;;;13.20;9.77;;;;;;;21.18;54.02;101035.13;4999585;28;124735;-70
2021/08/05 01:03:58;;;;;;;14.27;10.13;;;;;;;21.18;54.02;101035.13;5008244;28;124033;-70
2021/08/05 01:06:56;;;;;;;13.38;9.98;;;;;;;21.18;53.89;101018.97;4990098;28;114148;-70
2021/08/05 01:09:34;;;;;;;11.43;9.82;;;;;;;21.18;53.93;101018.97;4988177;28;115126;-70
2021/08/05 01:12:26;;;;;;;12.70;10.82;;;;;;;21.16;54.01;101023.66;4986983;28;123806;-70
2021/08/05 01:15:09;;;;;;;13.68;10.52;;;;;;;21.16;53.88;101026.34;4984980;28;123226;-70
2021/08/05 01:17:40;;;;;;;14.68;11.02;;;;;;;21.15;54.14;101024.66;5008491;28;114200;-70
2021/08/05 01:20:12;;;;;;;12.15;10.20;;;;;;;21.14;54.12;101017.53;4973666;28;113895;-70
2021/08/05 01:23:07;;;;;;;14.35;10.13;;;;;;;21.13;54.20;101021.22;4983986;28;123298;-70
2021/08/05 01:25:46;;;;;;;13.40;10.45;;;;;;;21.12;53.98;101024.91;4967720;28;122657;-70
2021/08/05 01:28:14;;;;;;;12.90;10.20;;;;;;;21.11;53.94;101022.34;4968829;28;112658;-70
2021/08/05 01:30:44;;;;;;;14.30;10.88;;;;;;;21.09;54.08;101027.84;4977805;28;113845;-70
2021/08/05 01:33:16;;;;;;;12.40;10.23;;;;;;;21.08;54.09;101028.84;5000010;28;124811;-70
2021/08/05 01:35:43;;;;;;;13.55;10.55;;;;;;;21.06;54.07;101025.44;4995534;28;124008;-71
2021/08/05 01:38:13;;;;;;;13.27;10.30;;;;;;;21.06;54.25;101025.44;4985106;28;113381;-70
2021/08/05 01:40:41;;;;;;;11.95;10.20;;;;;;;21.04;53.96;101032.81;4982867;28;113219;-70
2021/08/05 01:43:09;;;;;;;11.95;10.02;;;;;;;21.01;54.30;101027.69;4987462;28;123904;-70
2021/08/05 01:45:38;;;;;;;13.18;11.18;;;;;;;20.99;54.46;101035.03;5007523;28;124149;-71
2021/08/05 01:48:06;;;;;;;14.18;11.38;;;;;;;20.96;54.49;101030.78;4989709;28;114023;-70
2021/08/05 01:50:33;;;;;;;14.48;11.57;;;;;;;20.95;54.40;101039.81;4999945;28;114408;-70
2021/08/05 01:53:02;;;;;;;16.15;12.23;;;;;;;20.94;54.63;101026.50;4984221;28;123743;-70
2021/08/05 01:55:29;;;;;;;16.50;12.00;;;;;;;20.89;54.94;101015.25;4982119;28;122747;-70
2021/08/05 01:57:57;;;;;;;13.93;11.35;;;;;;;20.79;54.88;101013.38;5001920;28;116031;-70
2021/08/05 02:00:25;;;;;;;14.75;12.05;;;;;;;20.67;55.20;101014.41;4969521;28;114349;-70
2021/08/05 02:02:55;;;;;;;15.75;11.50;;;;;;;20.54;55.20;101009.19;5000142;28;125017;-70
2021/08/05 02:05:33;;;;;;;14.60;11.80;;;;;;;20.47;55.30;101015.22;4991552;28;124305;-70
2021/08/05 02:08:04;;;;;;;13.93;11.05;;;;;;;20.42;55.50;101011.06;4996350;28;114109;-70
2021/08/05 02:10:34;;;;;;;15.75;11.80;;;;;;;20.41;55.51;101009.34;4997132;28;113701;-70
2021/08/05 02:13:11;;;;;;;14.15;11.23;;;;;;;20.43;55.48;101015.47;5000856;28;124529;-70
2021/08/05 02:15:46;;;;;;;14.43;11.30;;;;;;;20.45;55.48;101014.50;4976817;28;123285;-70
2021/08/05 02:18:14;;;;;;;13.27;10.68;;;;;;;20.46;55.47;101006.28;5004832;28;114945;-70
2021/08/05 02:20:43;;;;;;;13.63;11.30;;;;;;;20.47;55.39;101007.13;4985726;28;113394;-70
2021/08/05 02:23:14;;;;;;;15.18;11.43;;;;;;;20.47;55.49;101007.13;4987035;28;123481;-70
2021/08/05 02:25:42;;;;;;;13.85;10.93;;;;;;;20.47;55.41;101007.13;4990819;28;124452;-70
2021/08/05 02:28:10;;;;;;;12.50;10.50;;;;;;;20.47;55.23;101007.13;4984430;28;113363;-70
2021/08/05 02:30:37;;;;;;;14.40;10.80;;;;;;;20.46;55.33;101005.44;4984455;28;112819;-70
2021/08/05 02:33:05;;;;;;;12.50;10.05;;;;;;;20.46;55.38;101005.44;5004002;28;124428;-70
2021/08/05 02:35:36;;;;;;;14.50;11.25;;;;;;;20.46;55.36;101006.28;4986724;28;123293;-70
2021/08/05 02:38:04;;;;;;;16.40;12.15;;;;;;;20.43;55.49;100996.63;5005586;28;114832;-71
2021/08/05 02:40:34;;;;;;;13.45;11.35;;;;;;;20.42;55.57;100994.94;4987743;28;113313;-70
2021/08/05 02:43:06;;;;;;;13.73;10.82;;;;;;;20.42;55.49;100984.19;4997854;28;124192;-70
2021/08/05 02:45:35;;;;;;;13.43;10.85;;;;;;;20.41;55.43;100993.22;4990648;28;123197;-70
2021/08/05 02:48:05;;;;;;;13.38;10.90;;;;;;;20.39;55.51;100995.19;4985239;28;114246;-70
2021/08/05 02:50:33;;;;;;;13.88;11.00;;;;;;;20.38;55.49;100998.88;4998944;28;115261;-71
2021/08/05 02:53:03;;;;;;;14.68;11.20;;;;;;;20.35;55.31;100987.50;5004451;28;123779;-70
2021/08/05 02:55:31;;;;;;;15.82;11.25;;;;;;;20.31;55.47;100992.28;4998868;28;124339;-70
2021/08/05 02:58:00;;;;;;;13.48;11.52;;;;;;;20.29;55.60;100983.50;5003155;28;114490;-70
2021/08/05 03:00:27;;;;;;;16.15;12.05;;;;;;;20.27;55.69;100990.84;4981778;28;112963;-70
2021/08/05 03:02:54;;;;;;;13.48;11.63;;;;;;;20.25;55.67;100987.44;4981351;28;123301;-70
2021/08/05 03:05:22;;;;;;;14.80;11.45;;;;;;;20.23;55.79;100984.03;5001414;28;124143;-70
2021/08/05 03:07:49;;;;;;;14.18;10.98;;;;;;;20.23;55.78;100986.72;5007703;28;114564;-70
2021/08/05 03:10:17;;;;;;;12.77;10.25;;;;;;;20.22;55.69;100987.69;5004350;28;113929;-70
2021/08/05 03:12:44;;;;;;;15.65;11.93;;;;;;;20.21;55.65;100980.59;4990053;28;123008;-71
2021/08/05 03:15:12;;;;;;;17.05;12.07;;;;;;;20.20;55.95;100989.66;4988343;28;124049;-71
2021/08/05 03:17:39;;;;;;;16.00;13.02;;;;;;;20.19;55.92;100987.94;5004675;28;113966;-70
2021/08/05 03:20:08;;;;;;;14.43;12.40;;;;;;;20.18;56.12;100975.47;4983492;28;112923;-70
2021/08/05 03:22:36;;;;;;;16.55;13.07;;;;;;;20.18;56.04;100970.09;4990865;28;124233;-70
2021/08/05 03:25:03;;;;;;;16.38;12.48;;;;;;;20.16;56.20;100969.38;4988008;28;124013;-70
2021/08/05 03:27:30;;;;;;;15.05;12.63;;;;;;;20.15;56.42;100970.34;4976495;28;113653;-70
2021/08/05 03:29:57;;;;;;;17.02;12.50;;;;;;;20.13;56.21;100975.00;5005666;28;114198;-70
2021/08/05 03:32:25;;;;;;;15.75;12.20;;;;;;;20.12;56.25;100967.94;5003470;28;124575;-70
2021/08/05 03:34:53;;;;;;;16.15;12.90;;;;;;;20.13;56.28;100966.94;5002392;28;123656;-71
2021/08/05 03:37:20;;;;;;;15.43;12.35;;;;;;;20.12;56.29;100976.84;5003128;28;114972;-71
2021/08/05 03:39:47;;;;;;;15.65;12.07;;;;;;;20.12;56.34;100960.72;5005549;28;115214;-70
2021/08/05 03:42:14;;;;;;;14.52;12.23;;;;;;;20.13;56.30;100966.94;5000870;28;124698;-70
2021/08/05 03:44:41;;;;;;;14.77;12.05;;;;;;;20.11;56.41;100958.16;4996805;28;125018;-70
2021/08/05 03:47:08;;;;;;;14.52;11.57;;;;;;;20.12;56.44;100959.88;5001050;28;114286;-71
2021/08/05 03:49:35;;;;;;;14.32;11.52;;;;;;;20.12;56.31;100959.88;4982649;28;114261;-71
2021/08/05 03:52:02;;;;;;;14.38;11.32;;;;;;;20.12;56.43;100958.03;5002726;28;124096;-70
2021/08/05 03:54:29;;;;;;;12.95;10.95;;;;;;;20.12;56.29;100959.88;5006221;28;123946;-70
2021/08/05 03:56:56;;;;;;;14.48;11.85;;;;;;;20.10;56.39;100962.69;5003898;28;115126;-70
2021/08/05 03:59:23;;;;;;;16.92;11.90;;;;;;;20.10;56.42;100961.81;5008025;28;114213;-70
2021/08/05 04:01:50;;;;;;;14.95;11.38;;;;;;;20.10;56.44;100961.81;4985098;28;124097;-70
2021/08/05 04:04:18;;;;;;;13.60;11.38;;;;;;;20.10;56.42;100961.81;4999119;28;124606;-70
2021/08/05 04:06:45;;;;;;;14.80;11.75;;;;;;;20.09;56.86;100954.72;4987762;28;113063;-70
2021/08/05 04:09:12;;;;;;;14.73;11.65;;;;;;;20.11;56.54;100963.53;5009538;28;114210;-70
2021/08/05 04:11:39;;;;;;;16.50;12.52;;;;;;;20.11;56.53;100960.84;5006010;28;123244;-70
2021/08/05 04:14:06;;;;;;;14.65;12.10;;;;;;;20.12;56.54;100959.88;5006176;28;123799;-70
2021/08/05 04:16:34;;;;;;;15.68;12.75;;;;;;;20.09;56.69;100954.72;5002967;28;114150;-70
2021/08/05 04:19:02;;;;;;;18.38;13.38;;;;;;;20.07;56.66;100954.00;5002284;28;113943;-70
2021/08/05 04:21:29;;;;;;;16.50;13.15;;;;;;;20.01;56.89;100950.84;4987265;28;122027;-70
2021/08/05 04:23:56;;;;;;;18.27;12.52;;;;;;;19.99;56.81;100955.50;5002783;28;124550;-70
2021/08/05 04:26:23;;;;;;;13.73;11.43;;;;;;;19.98;57.01;100959.16;5010897;28;114946;-70
2021/08/05 04:28:50;;;;;;;16.67;13.30;;;;;;;19.98;57.06;100961.84;4979751;28;113954;-70
2021/08/05 04:31:17;;;;;;;17.75;13.00;;;;;;;20.00;57.19;100962.59;4983180;28;123673;-70
2021/08/05 04:33:44;;;;;;;15.48;12.75;;;;;;;20.01;57.13;100961.59;4982975;28;123709;-70
2021/08/05 04:36:11;;;;;;;17.52;12.73;;;;;;;20.02;57.21;100957.94;5005357;28;114181;-70
2021/08/05 04:38:38;;;;;;;16.13;12.32;;;;;;;20.03;57.09;100962.31;5002486;28;114179;-70
2021/08/05 04:41:05;;;;;;;15.45;12.40;;;;;;;20.07;57.14;100959.38;5000506;28;124221;-70
2021/08/05 04:43:32;;;;;;;15.95;12.77;;;;;;;20.07;56.99;100956.69;4983466;28;124797;-70
2021/08/05 04:45:59;;;;;;;15.20;11.98;;;;;;;20.08;57.11;100950.31;4997464;28;113327;-69
2021/08/05 04:48:27;;;;;;;16.15;12.70;;;;;;;20.11;57.16;100952.75;4998540;28;113820;-70
2021/08/05 04:50:54;;;;;;;18.10;12.70;;;;;;;20.13;56.94;100940.03;4981023;28;122794;-70
2021/08/05 04:53:22;;;;;;;17.48;12.95;;;;;;;20.15;57.08;100951.53;5002714;28;123986;-70
2021/08/05 04:55:49;;;;;;;17.33;13.23;;;;;;;20.16;57.06;100946.03;5001224;28;117004;-70
2021/08/05 04:58:16;;;;;;;17.05;13.13;;;;;;;20.18;57.05;100945.91;5004837;28;114005;-70
2021/08/05 05:00:43;;;;;;;15.73;12.52;;;;;;;20.20;57.10;100946.63;4999110;28;124811;-71
2021/08/05 05:03:11;;;;;;;19.25;13.43;;;;;;;20.20;57.17;100946.63;5009821;28;123668;-70
2021/08/05 05:05:38;;;;;;;19.55;13.57;;;;;;;20.22;57.06;100944.66;5011824;28;114641;-70
2021/08/05 05:08:18;;;;;;;16.00;12.88;;;;;;;20.22;57.08;100945.50;5005881;28;113913;-70
2021/08/05 05:10:47;;;;;;;17.70;12.73;;;;;;;20.24;57.50;100948.06;4982091;28;124175;-70
2021/08/05 05:13:15;;;;;;;16.23;12.52;;;;;;;20.25;57.23;100944.41;4983295;28;122666;-70
2021/08/05 05:15:42;;;;;;;17.52;13.07;;;;;;;20.27;57.38;100950.50;4986608;28;115601;-70
2021/08/05 05:18:10;;;;;;;16.95;13.13;;;;;;;20.30;57.40;100942.16;4990621;28;115522;-70
2021/08/05 05:20:37;;;;;;;16.52;13.70;;;;;;;20.32;57.55;100937.50;5008475;28;123760;-70
2021/08/05 05:23:06;;;;;;;20.77;14.82;;;;;;;20.33;57.47;100936.53;4995106;28;123636;-70
2021/08/05 05:25:35;;;;;;;18.40;14.15;;;;;;;20.36;57.66;100930.91;5005828;28;114231;-71
2021/08/05 05:28:02;;;;;;;19.77;15.23;;;;;;;20.37;57.58;100927.19;4984866;28;113581;-70
2021/08/05 05:30:29;;;;;;;23.42;15.50;;;;;;;20.41;57.82;100933.19;5005184;28;124391;-70
2021/08/05 05:32:57;;;;;;;22.73;15.77;;;;;;;20.43;57.60;100932.06;5004807;28;123718;-71
2021/08/05 05:35:24;;;;;;;24.45;16.33;;;;;;;20.42;57.49;100930.38;5002725;28;114540;-70
2021/08/05 05:37:53;;;;;;;20.25;15.82;;;;;;;20.42;57.75;100935.75;4999601;28;114019;-70
2021/08/05 05:40:21;;;;;;;20.73;15.30;;;;;;;20.40;57.77;100932.34;5004649;28;123144;-70
2021/08/05 05:42:49;;;;;;;18.75;14.82;;;;;;;20.39;57.79;100937.84;5001593;28;123624;-70
2021/08/05 05:45:17;;;;;;;19.83;15.13;;;;;;;20.39;57.77;100936.00;4982546;28;114296;-70
2021/08/05 05:47:44;;;;;;;20.00;15.80;;;;;;;20.41;57.88;100939.41;5002925;28;113967;-70
2021/08/05 05:50:15;;;;;;;22.63;15.95;;;;;;;20.41;57.87;100939.41;5002421;28;126442;-70
2021/08/05 05:52:42;;;;;;;19.95;15.68;;;;;;;20.42;57.73;100938.44;4999705;28;124562;-70
2021/08/05 05:55:10;;;;;;;21.02;16.05;;;;;;;20.43;57.92;100937.44;5000728;28;113970;-71
2021/08/05 05:57:37;;;;;;;21.15;15.35;;;;;;;20.47;57.91;100935.34;5001605;28;113406;-70
2021/08/05 06:00:05;;;;;;;21.48;17.02;;;;;;;20.51;58.25;100930.56;5004300;28;124045;-70
2021/08/05 06:02:38;;;;;;;23.27;17.37;;;;;;;20.56;58.00;100931.03;5006241;28;123838;-71
2021/08/05 06:05:07;;;;;;;28.55;20.10;;;;;;;20.60;58.22;100933.34;5009719;28;115848;-70
2021/08/05 06:07:51;;;;;;;25.83;19.27;;;;;;;20.61;58.06;100935.06;5001029;28;115181;-70
2021/08/05 06:10:21;;;;;;;27.20;19.10;;;;;;;20.63;58.17;100937.63;4986999;28;123497;-71
2021/08/05 06:12:49;;;;;;;26.83;19.52;;;;;;;20.68;58.15;100935.41;4984297;28;123704;-70
2021/08/05 06:15:17;;;;;;;25.80;20.15;;;;;;;20.73;58.33;100938.50;5000648;28;113975;-70
2021/08/05 06:17:45;;;;;;;26.85;19.90;;;;;;;20.78;58.07;100941.66;4984973;28;113268;-70
2021/08/05 06:20:16;;;;;;;26.35;20.25;;;;;;;20.80;58.14;100944.22;4995673;28;123865;-70
2021/08/05 06:22:45;;;;;;;28.20;21.05;;;;;;;20.82;57.97;100933.34;5002793;28;123742;-70
2021/08/05 06:25:13;;;;;;;27.52;20.08;;;;;;;20.86;57.97;100940.16;4979407;28;114545;-70
2021/08/05 06:27:41;;;;;;;30.60;21.55;;;;;;;20.90;58.00;100949.66;4982035;28;114301;-70
2021/08/05 06:30:10;;;;;;;29.17;20.77;;;;;;;20.98;58.25;100947.16;5002906;28;124756;-70
2021/08/05 06:32:37;;;;;;;28.98;20.95;;;;;;;21.05;58.09;100942.94;5005980;28;124197;-70
2021/08/05 06:35:06;;;;;;;30.48;23.00;;;;;;;21.15;58.27;100945.66;4984426;28;114356;-70
2021/08/05 06:37:33;;;;;;;33.40;24.10;;;;;;;21.24;57.99;100941.31;4984663;28;113833;-70
2021/08/05 06:40:04;;;;;;;36.50;25.23;;;;;;;21.33;57.99;100940.50;4997691;28;123825;-70
2021/08/05 06:42:32;;;;;;;31.58;24.50;;;;;;;21.43;57.76;100932.44;4979570;28;122508;-71
2021/08/05 06:45:00;;;;;;;32.00;24.13;;;;;;;21.52;57.54;100935.19;5005955;28;113869;-70
2021/08/05 06:47:27;;;;;;;31.67;23.65;;;;;;;21.61;57.51;100933.53;4982522;28;113312;-70
2021/08/05 06:49:54;;;;;;;33.10;24.45;;;;;;;21.72;57.59;100929.84;5006628;28;124462;-70
2021/08/05 06:52:21;;;;;;;31.75;23.95;;;;;;;21.85;57.24;100925.03;4967128;28;123331;-72
2021/08/05 06:54:48;;;;;;;31.98;24.33;;;;;;;21.96;57.10;100924.91;4990628;28;115089;-72
2021/08/05 06:57:15;;;;;;;33.13;23.92;;;;;;;22.08;57.07;100924.78;5007319;28;115186;-73
2021/08/05 06:59:43;;;;;;;32.78;25.08;;;;;;;22.18;56.85;100925.59;5001056;28;124114;-71
2021/08/05 07:02:10;;;;;;;35.55;25.05;;;;;;;22.27;56.66;100924.78;4995406;28;124348;-72
2021/08/05 07:04:37;;;;;;;33.58;24.88;;;;;;;22.37;56.29;100923.94;4987043;28;114122;-72
2021/08/05 07:07:04;;;;;;;33.78;25.48;;;;;;;22.46;56.18;100929.31;4999034;28;113288;-72
2021/08/05 07:09:31;;;;;;;31.90;24.20;;;;;;;22.55;55.78;100927.59;4982385;28;126080;-72
2021/08/05 07:11:58;;;;;;;33.35;25.20;;;;;;;22.63;55.95;100926.88;5005593;28;123719;-72
2021/08/05 07:14:26;;;;;;;30.48;24.33;;;;;;;22.68;55.82;100928.13;4986170;28;113208;-72
2021/08/05 07:16:53;;;;;;;32.38;24.33;;;;;;;22.69;55.53;100929.81;4971189;28;113392;-72
2021/08/05 07:19:20;;;;;;;32.42;24.75;;;;;;;22.71;55.75;100922.41;4984132;28;123820;-72
2021/08/05 07:21:48;;;;;;;29.25;22.83;;;;;;;22.72;55.93;100918.75;4997934;28;124400;-72
2021/08/05 07:24:15;;;;;;;29.60;23.20;;;;;;;22.79;55.95;100918.13;4977393;28;113124;-72
2021/08/05 07:26:42;;;;;;;31.95;24.10;;;;;;;22.83;55.92;100914.16;5001322;28;113953;-72
2021/08/05 07:29:09;;;;;;;32.10;23.83;;;;;;;22.91;55.93;100911.56;4995814;28;123828;-72
2021/08/05 07:31:37;;;;;;;32.45;24.38;;;;;;;22.99;55.78;100902.72;4975268;28;123800;-72
2021/08/05 07:34:04;;;;;;;31.95;24.10;;;;;;;23.09;55.72;100903.56;4985948;28;113134;-72
2021/08/05 07:36:32;;;;;;;32.95;24.48;;;;;;;23.22;55.81;100908.63;5004247;28;114257;-72
2021/08/05 07:38:59;;;;;;;34.03;24.63;;;;;;;23.37;55.71;100901.72;4988650;28;125899;-73
2021/08/05 07:41:26;;;;;;;31.33;23.80;;;;;;;23.52;55.88;100916.41;5010208;28;123880;-73
2021/08/05 07:43:53;;;;;;;29.88;23.23;;;;;;;23.69;55.87;100912.03;4988595;28;114126;-73
2021/08/05 07:46:20;;;;;;;31.05;23.75;;;;;;;23.83;55.54;100902.59;5011223;28;115070;-73
2021/08/05 07:48:47;;;;;;;30.75;23.20;;;;;;;23.97;54.86;100903.88;4995717;28;124038;-73
2021/08/05 07:51:14;;;;;;;28.83;22.75;;;;;;;24.10;54.52;100904.34;4983659;28;123938;-73
2021/08/05 07:53:41;;;;;;;28.45;23.05;;;;;;;24.23;54.32;100903.94;4995274;28;114579;-74
2021/08/05 07:56:09;;;;;;;29.42;23.10;;;;;;;24.38;54.13;100900.69;4994559;28;114624;-74
2021/08/05 07:58:37;;;;;;;29.23;23.73;;;;;;;24.54;53.95;100895.38;4992596;28;124037;-74
2021/08/05 08:01:05;;;;;;;29.75;23.65;;;;;;;24.71;53.43;100901.75;4991080;28;123701;-74
2021/08/05 08:03:32;;;;;;;28.63;23.05;;;;;;;24.86;53.23;100893.88;4998151;28;114115;-73
2021/08/05 08:06:00;;;;;;;32.17;23.33;;;;;;;25.00;52.90;100896.00;4986875;28;113872;-73
2021/08/05 08:08:27;;;;;;;28.35;22.23;;;;;;;25.10;52.25;100889.59;4982765;28;123206;-73
2021/08/05 08:10:54;;;;;;;29.05;23.23;;;;;;;25.18;51.72;100889.63;5010860;28;123955;-73
2021/08/05 08:13:28;;;;;;;28.73;23.10;;;;;;;25.24;51.38;100891.72;5007112;28;114818;-73
2021/08/05 08:15:55;;;;;;;29.35;22.38;;;;;;;25.29;51.39;100883.94;5012038;28;114080;-73
2021/08/05 08:18:23;;;;;;;26.23;21.05;;;;;;;25.41;50.89;100888.06;4992429;28;124997;-74
2021/08/05 08:20:51;;;;;;;25.63;21.50;;;;;;;25.53;50.54;100885.03;5009799;28;124023;-73
2021/08/05 08:23:18;;;;;;;24.90;20.45;;;;;;;25.64;50.14;100887.44;5011444;28;114182;-73
2021/08/05 08:25:45;;;;;;;24.42;20.27;;;;;;;25.74;49.91;100885.41;5001242;28;113753;-74
2021/08/05 08:28:12;;;;;;;25.65;19.95;;;;;;;25.84;49.66;100894.25;5011239;28;124849;-74
2021/08/05 08:30:39;;;;;;;24.05;20.05;;;;;;;25.95;49.25;100884.09;4986687;28;123270;-73
2021/08/05 08:33:06;;;;;;;27.50;20.90;;;;;;;26.04;48.88;100888.53;5012615;28;115281;-74
2021/08/05 08:35:33;;;;;;;25.02;20.52;;;;;;;26.14;48.63;100883.75;5012724;28;115282;-74
2021/08/05 08:38:02;;;;;;;24.77;20.73;;;;;;;26.26;48.03;100875.25;5013135;28;124063;-74
2021/08/05 08:40:29;;;;;;;27.00;22.05;;;;;;;26.36;48.29;100881.38;4994313;28;123661;-74
2021/08/05 08:42:58;;;;;;;29.92;22.95;;;;;;;26.44;47.39;100878.63;4992841;28;114553;-74
2021/08/05 08:45:25;;;;;;;25.13;20.73;;;;;;;26.49;47.56;100881.69;4995540;28;113920;-73
2021/08/05 08:47:54;;;;;;;25.60;21.23;;;;;;;26.55;47.28;100881.00;4995210;28;123247;-74
2021/08/05 08:50:26;;;;;;;30.30;22.90;;;;;;;26.61;46.86;100884.91;4995697;28;123807;-74
2021/08/05 08:53:08;;;;;;;27.88;22.50;;;;;;;26.58;46.94;100880.66;4991669;28;114308;-74
2021/08/05 08:55:38;;;;;;;29.33;22.95;;;;;;;26.59;47.26;100882.38;4988481;28;114480;-74
2021/08/05 08:58:06;;;;;;;27.20;22.95;;;;;;;26.60;46.50;100878.66;4993590;28;125881;-74
2021/08/05 09:00:36;;;;;;;29.20;23.50;;;;;;;26.60;46.26;100875.94;4991097;28;123699;-74
2021/08/05 09:03:05;;;;;;;27.60;23.35;;;;;;;26.57;45.65;100878.94;4989770;28;112807;-74
2021/08/05 09:05:34;;;;;;;28.15;23.50;;;;;;;26.53;46.43;100874.88;4993071;28;113812;-74
2021/08/05 09:08:02;;;;;;;31.45;24.80;;;;;;;26.58;46.06;100875.22;4996038;28;123125;-74
2021/08/05 09:10:32;;;;;;;28.05;22.20;;;;;;;26.63;46.07;100871.16;4991849;28;123604;-75
2021/08/05 09:13:01;;;;;;;27.52;23.08;;;;;;;26.64;46.02;100868.28;4976826;28;114055;-74
2021/08/05 09:15:41;;;;;;;30.08;22.90;;;;;;;26.70;46.28;100869.47;4994521;28;114173;-74
2021/08/05 09:18:32;;;;;;;27.20;21.92;;;;;;;26.77;46.37;100862.31;4993538;28;124448;-74
2021/08/05 09:21:23;;;;;;;29.70;21.50;;;;;;;26.83;45.83;100861.59;4995477;28;123793;-74
2021/08/05 09:24:03;;;;;;;26.70;21.08;;;;;;;26.87;45.77;100857.50;4984451;28;114388;-71
2021/08/05 09:26:44;;;;;;;26.13;21.83;;;;;;;26.92;45.83;100865.16;4977522;28;114223;-71
2021/08/05 09:29:11;;;;;;;27.83;21.92;;;;;;;26.97;45.80;100851.84;5000932;28;123941;-72
2021/08/05 09:31:40;;;;;;;22.58;19.25;;;;;;;27.04;46.14;100857.44;5007308;28;124461;-74
2021/08/05 09:34:11;;;;;;;21.42;17.23;;;;;;;27.14;45.42;100842.63;5003025;28;114161;-74
2021/08/05 09:36:40;;;;;;;21.35;18.63;;;;;;;27.22;44.75;100843.56;4987512;28;113157;-74
2021/08/05 09:39:27;;;;;;;20.23;17.90;;;;;;;27.26;44.56;100845.81;5008233;28;124516;-73
2021/08/05 09:42:02;;;;;;;24.98;19.42;;;;;;;27.30;44.55;100835.41;4988284;28;123140;-74
2021/08/05 09:44:38;;;;;;;24.63;20.35;;;;;;;27.36;44.35;100846.41;4986721;28;114886;-73
2021/08/05 09:47:09;;;;;;;25.45;21.25;;;;;;;27.42;44.85;100844.00;4989940;28;113361;-73
2021/08/05 09:49:39;;;;;;;25.15;20.55;;;;;;;27.49;44.38;100834.13;5003705;28;124760;-74
2021/08/05 09:52:10;;;;;;;25.10;21.25;;;;;;;27.54;44.58;100832.53;5000636;28;124592;-74
2021/08/05 09:54:51;;;;;;;26.52;21.00;;;;;;;27.57;43.99;100820.44;4987967;28;113976;-74
2021/08/05 09:57:29;;;;;;;22.70;18.30;;;;;;;27.59;44.31;100829.25;5009630;28;113912;-74
2021/08/05 09:59:59;;;;;;;20.92;17.13;;;;;;;27.62;43.96;100823.47;5029731;22;124310;-66
2021/08/05 10:02:38;;;;;;;20.83;16.38;;;;;;;27.69;43.61;100819.00;5009625;28;123860;-66
2021/08/05 10:05:32;;;;;;;21.55;17.67;;;;;;;27.72;42.35;100821.34;4993821;28;113061;-66
2021/08/05 10:08:01;;;;;;;22.20;18.75;;;;;;;27.68;41.07;100811.00;5009081;28;113860;-67
2021/08/05 10:10:50;;;;;;;24.58;21.15;;;;;;;27.61;42.20;100816.31;5012741;28;123891;-66
2021/08/05 10:13:34;;;;;;;25.30;20.88;;;;;;;27.58;42.68;100812.09;4991872;28;124012;-67
2021/08/05 10:16:03;;;;;;;26.17;21.02;;;;;;;27.59;42.42;100812.94;5011956;28;115224;-66
2021/08/05 10:18:33;;;;;;;25.85;20.92;;;;;;;27.59;42.68;100807.50;4994901;28;113459;-66
2021/08/05 10:21:04;;;;;;;25.77;20.85;;;;;;;27.69;42.64;100812.69;5009386;28;124166;-66
2021/08/05 10:23:35;;;;;;;26.55;21.20;;;;;;;27.76;42.37;100809.09;4994025;28;123051;-64
2021/08/05 10:26:05;;;;;;;25.48;20.92;;;;;;;27.81;42.71;100799.53;4994764;28;114715;-65
2021/08/05 10:28:34;;;;;;;25.70;21.25;;;;;;;27.87;42.35;100798.78;5013474;28;96901;-65
2021/08/05 10:31:07;;;;;;;26.98;21.95;;;;;;;27.93;42.06;100792.63;4991544;28;124818;-65
2021/08/05 10:33:35;;;;;;;25.48;21.15;;;;;;;27.99;42.23;100786.47;5007436;28;125393;-65
2021/08/05 10:36:03;;;;;;;27.77;22.88;;;;;;;28.08;42.13;100789.94;5002068;28;114529;-65
2021/08/05 10:38:43;;;;;;;30.88;24.42;;;;;;;28.15;42.15;100786.28;4997439;28;113893;-65
2021/08/05 10:41:11;;;;;;;28.05;22.83;;;;;;;28.22;42.17;100785.50;5000816;28;123850;-65
2021/08/05 10:43:42;;;;;;;27.38;23.08;;;;;;;28.31;41.52;100785.28;4973239;28;122677;-65
2021/08/05 10:46:10;;;;;;;30.13;23.35;;;;;;;28.40;41.07;100788.72;4990844;28;114228;-65
2021/08/05 10:48:38;;;;;;;27.33;22.02;;;;;;;28.45;41.83;100780.84;4998364;28;113872;-65
2021/08/05 10:51:06;;;;;;;26.40;21.05;;;;;;;28.57;41.78;100777.69;4994684;28;126219;-65
2021/08/05 10:53:33;;;;;;;26.52;22.63;;;;;;;28.66;41.52;100779.28;4984234;28;124094;-65
2021/08/05 10:56:24;;;;;;;25.85;22.00;;;;;;;28.75;41.86;100774.56;4997829;28;114664;-66
2021/08/05 10:59:13;;;;;;;25.80;22.83;;;;;;;28.81;41.25;100774.63;4992566;28;113500;-67
2021/08/05 11:01:53;;;;;;;29.13;23.13;;;;;;;28.78;40.67;100769.56;4978100;28;123903;-66
2021/08/05 11:04:40;;;;;;;26.90;22.67;;;;;;;28.69;40.43;100765.28;4960987;28;122959;-66
2021/08/05 11:07:30;;;;;;;27.65;23.00;;;;;;;28.61;40.02;100774.38;4994417;28;115026;-66
2021/08/05 11:10:16;;;;;;;28.23;21.42;;;;;;;28.51;40.61;100774.63;5000164;28;115335;-66
2021/08/05 11:12:46;;;;;;;27.27;23.20;;;;;;;28.48;40.35;100775.03;5000429;28;123926;-66
2021/08/05 11:20:51;;;;;;;29.17;22.70;;;;;;;28.51;40.73;100774.63;4999247;28;115426;-66